Time;durP1;ratioP1;P1;durP2;ratioP2;P2;SDS_P1;SDS_P2;PMS_P1;PMS_P2;Temp;Humidity;BMP_temperature;BMP_pressure;BME280_temperature;BME280_humidity;BME280_pressure;Samples;Min_cycle;Max_cycle;Signal;HPM_P1;HPM_P2
2022/05/20 00:02:09;;;;;;;1999.90;999.90;;;;;;;18.59;85.95;99709.69;8273097;28;20057;-72
2022/05/20 00:06:10;;;;;;;1999.90;999.90;;;;;;;18.56;86.28;99703.69;8273273;28;20052;-72
2022/05/20 00:10:17;;;;;;;1999.90;999.90;;;;;;;18.57;86.53;99705.41;8251217;28;20089;-72
2022/05/20 00:14:18;;;;;;;1999.90;999.90;;;;;;;18.43;87.45;99711.94;8273060;28;20121;-72
2022/05/20 00:18:21;;;;;;;1999.90;999.90;;;;;;;18.39;88.05;99701.56;8262682;28;20056;-72
2022/05/20 00:22:22;;;;;;;1999.90;999.90;;;;;;;18.45;88.23;99701.38;8279377;28;20041;-72
2022/05/20 00:26:25;;;;;;;1999.90;999.90;;;;;;;18.55;87.95;99699.31;8269299;28;20117;-72
2022/05/20 00:30:27;;;;;;;;;;;;;;;18.65;87.24;99692.88;8270047;28;20049;-72
2022/05/20 00:34:29;;;;;;;1999.90;999.90;;;;;;;18.70;86.68;99685.72;8259305;28;20400;-73
2022/05/20 00:38:31;;;;;;;1999.90;999.90;;;;;;;18.74;86.07;99692.59;8270978;28;20153;-72
2022/05/20 00:42:35;;;;;;;1999.90;999.90;;;;;;;18.80;86.09;99694.16;8269850;28;20089;-73
2022/05/20 00:46:37;;;;;;;1999.90;999.90;;;;;;;18.83;86.31;99687.00;8275486;28;20432;-72
2022/05/20 00:50:43;;;;;;;1999.90;999.90;;;;;;;18.86;85.93;99691.34;8261428;28;20061;-72
2022/05/20 00:54:50;;;;;;;1999.90;999.90;;;;;;;18.89;85.52;99681.56;8276875;28;20383;-72
2022/05/20 00:58:53;;;;;;;1999.90;999.90;;;;;;;18.87;85.72;99680.75;8273193;28;20443;-72
2022/05/20 01:03:03;;;;;;;1999.90;999.90;;;;;;;18.88;85.62;99679.84;8275304;28;20068;-72
2022/05/20 01:07:06;;;;;;;1999.90;999.90;;;;;;;18.90;85.10;99677.16;8266249;28;20506;-72
2022/05/20 01:11:08;;;;;;;1999.90;999.90;;;;;;;18.92;84.81;99675.34;8277439;28;20728;-72
2022/05/20 01:15:10;;;;;;;1999.90;999.90;;;;;;;18.88;84.92;99666.69;8275070;28;20069;-71
2022/05/20 01:19:18;;;;;;;1999.90;999.90;;;;;;;18.83;85.28;99670.38;8272223;28;20538;-72
2022/05/20 01:23:23;;;;;;;1999.90;999.90;;;;;;;18.78;85.30;99675.78;8282994;28;20482;-72
2022/05/20 01:27:24;;;;;;;1999.90;999.90;;;;;;;18.73;85.29;99674.22;8257078;28;20056;-72
2022/05/20 01:31:26;;;;;;;1999.90;999.90;;;;;;;18.67;85.29;99676.16;8279908;28;20060;-71
2022/05/20 01:35:35;;;;;;;1999.90;999.90;;;;;;;18.64;85.32;99678.00;8284392;28;20465;-71
2022/05/20 01:39:37;;;;;;;1999.90;999.90;;;;;;;18.51;86.01;99669.66;8261213;28;20137;-72
2022/05/20 01:43:45;;;;;;;1999.90;999.90;;;;;;;18.44;85.77;99668.09;8282837;28;20132;-72
2022/05/20 01:47:54;;;;;;;1999.90;999.90;;;;;;;18.37;85.89;99656.06;8273979;28;20070;-72
2022/05/20 01:52:03;;;;;;;1999.90;999.90;;;;;;;18.26;86.84;99658.16;8286459;28;20158;-72
2022/05/20 01:56:20;;;;;;;1999.90;999.90;;;;;;;18.18;86.74;99652.31;8286119;28;20046;-72
2022/05/20 02:00:25;;;;;;;1999.90;999.90;;;;;;;18.04;87.12;99647.47;8248882;28;20050;-72
2022/05/20 02:04:34;;;;;;;1999.90;999.90;;;;;;;17.92;87.17;99655.72;8290406;28;20050;-71
2022/05/20 02:08:43;;;;;;;1999.90;999.90;;;;;;;17.84;87.80;99640.19;8279432;28;20041;-71
2022/05/20 02:12:50;;;;;;;1999.90;999.90;;;;;;;17.78;88.29;99643.00;8275592;28;20425;-72
2022/05/20 02:17:13;;;;;;;1999.90;999.90;;;;;;;17.75;88.42;99643.06;8292506;28;20144;-72
2022/05/20 02:21:18;;;;;;;1999.90;999.90;;;;;;;17.72;88.81;99640.53;8277974;28;20084;-72
2022/05/20 02:25:26;;;;;;;1999.90;999.90;;;;;;;17.72;89.38;99635.28;8287816;28;20132;-72
2022/05/20 02:29:34;;;;;;;1999.90;999.90;;;;;;;17.70;89.48;99650.25;8287888;28;20693;-72
2022/05/20 02:33:35;;;;;;;1999.90;999.90;;;;;;;17.67;89.66;99645.06;8286310;28;20062;-72
2022/05/20 02:37:39;;;;;;;1999.90;999.90;;;;;;;17.67;89.88;99645.06;8277235;28;20052;-72
2022/05/20 02:41:45;;;;;;;1999.90;999.90;;;;;;;17.68;89.87;99647.66;8289589;28;20048;-72
2022/05/20 02:45:49;;;;;;;1999.90;999.90;;;;;;;17.68;89.82;99645.03;8267075;28;20137;-71
2022/05/20 02:49:50;;;;;;;1999.90;999.90;;;;;;;17.75;90.27;99645.69;8291173;28;20063;-72
2022/05/20 02:53:53;;;;;;;1999.90;999.90;;;;;;;17.89;89.97;99650.56;8289231;28;20489;-72
2022/05/20 02:57:54;;;;;;;1999.90;999.90;;;;;;;18.01;89.90;99645.78;8288259;28;20060;-72
2022/05/20 03:06:21;;;;;;;1999.90;999.90;;;;;;;18.20;89.58;99630.31;8285000;28;20077;-71
2022/05/20 03:10:22;;;;;;;1999.90;999.90;;;;;;;18.26;89.48;99629.25;8286123;28;20048;-71
2022/05/20 03:14:24;;;;;;;1999.90;999.90;;;;;;;18.32;89.04;99621.19;8264663;28;20081;-72
2022/05/20 03:18:25;;;;;;;1999.90;999.90;;;;;;;18.37;88.48;99620.13;8250346;28;20082;-72
2022/05/20 03:22:28;;;;;;;1999.90;999.90;;;;;;;18.40;88.31;99614.75;8283066;28;20056;-72
2022/05/20 03:26:30;;;;;;;1999.90;999.90;;;;;;;18.43;87.59;99606.75;8288797;28;20069;-72
2022/05/20 03:30:32;;;;;;;;;;;;;;;18.45;87.72;99601.44;8266844;28;20046;-72
2022/05/20 03:34:33;;;;;;;1999.90;999.90;;;;;;;18.46;87.55;99604.94;8292949;28;19925;-73
2022/05/20 03:38:35;;;;;;;1999.90;999.90;;;;;;;18.45;87.11;99603.22;8249480;28;20510;-72
2022/05/20 03:42:37;;;;;;;1999.90;999.90;;;;;;;18.44;86.38;99591.84;8279356;28;20085;-72
2022/05/20 03:46:51;;;;;;;1999.90;999.90;;;;;;;18.35;86.64;99600.91;8266095;28;20154;-72
2022/05/20 03:50:53;;;;;;;1999.90;999.90;;;;;;;18.26;86.87;99598.56;8282868;28;20050;-72
2022/05/20 03:54:54;;;;;;;1999.90;999.90;;;;;;;18.11;87.51;99588.53;8283578;28;20339;-72
2022/05/20 03:58:56;;;;;;;1999.90;999.90;;;;;;;18.02;87.98;99596.72;8261506;28;20049;-72
2022/05/20 04:03:00;;;;;;;1999.90;999.90;;;;;;;17.89;88.59;99591.00;8268967;28;20145;-72
2022/05/20 04:07:10;;;;;;;1999.90;999.90;;;;;;;17.79;88.89;99597.44;8259391;28;20513;-73
2022/05/20 04:11:11;;;;;;;1999.90;999.90;;;;;;;17.72;89.95;99598.53;8285366;28;20170;-73
2022/05/20 04:15:15;;;;;;;1999.90;999.90;;;;;;;17.70;90.19;99610.84;8263877;28;20042;-72
2022/05/20 04:19:16;;;;;;;1999.90;999.90;;;;;;;17.70;90.22;99611.69;8270809;28;20061;-72
2022/05/20 04:23:20;;;;;;;1999.90;999.90;;;;;;;17.70;90.44;99608.22;8281735;28;20414;-73
2022/05/20 04:27:22;;;;;;;1999.90;999.90;;;;;;;17.64;90.21;99603.13;8264113;28;20042;-72
2022/05/20 04:31:24;;;;;;;1999.90;999.90;;;;;;;17.65;90.36;99610.09;8248347;28;20117;-72
2022/05/20 04:35:25;;;;;;;1999.90;999.90;;;;;;;17.62;90.61;99613.69;8251763;28;20140;-72
2022/05/20 04:39:27;;;;;;;1999.90;999.90;;;;;;;17.60;90.50;99606.75;8283237;28;20070;-72
2022/05/20 04:47:48;;;;;;;1999.90;999.90;;;;;;;17.76;91.16;99615.91;8277256;28;20053;-72
2022/05/20 04:51:50;;;;;;;1999.90;999.90;;;;;;;17.81;91.10;99619.28;8281659;28;20791;-72
2022/05/20 04:55:52;;;;;;;1999.90;999.90;;;;;;;17.90;90.85;99621.59;8285307;28;20638;-72
2022/05/20 04:59:58;;;;;;;1999.90;999.90;;;;;;;18.03;90.49;99620.34;8267898;28;20053;-73
2022/05/20 05:03:59;;;;;;;1999.90;999.90;;;;;;;18.23;89.90;99624.97;8259531;28;20074;-72
2022/05/20 05:08:01;;;;;;;1999.90;999.90;;;;;;;18.47;89.29;99625.06;8280396;28;20049;-74
2022/05/20 05:12:04;;;;;;;1999.90;999.90;;;;;;;18.74;87.88;99621.56;8280801;28;20133;-74
2022/05/20 05:16:11;;;;;;;1999.90;999.90;;;;;;;19.04;86.13;99622.28;8264672;28;20053;-74
2022/05/20 05:20:18;;;;;;;1999.90;999.90;;;;;;;19.31;85.42;99618.66;8280359;28;20042;-74
2022/05/20 05:24:20;;;;;;;1999.90;999.90;;;;;;;19.64;83.83;99622.75;8259876;28;20041;-74
2022/05/20 05:28:22;;;;;;;1999.90;999.90;;;;;;;19.93;81.74;99617.25;8269413;28;20856;-74
2022/05/20 05:32:24;;;;;;;1999.90;999.90;;;;;;;20.02;81.04;99614.25;8273358;28;20058;-74
2022/05/20 05:36:25;;;;;;;1999.90;999.90;;;;;;;20.08;80.05;99619.25;8285273;28;20620;-74
2022/05/20 05:40:31;;;;;;;1999.90;999.90;;;;;;;20.06;80.51;99620.25;8275406;28;20077;-74
2022/05/20 05:44:32;;;;;;;1999.90;999.90;;;;;;;20.07;80.43;99617.53;8261194;28;20061;-74
2022/05/20 05:48:34;;;;;;;1999.90;999.90;;;;;;;20.44;79.25;99616.94;8280189;28;20073;-74
2022/05/20 05:52:35;;;;;;;1999.90;999.90;;;;;;;20.87;76.92;99623.09;8280489;28;20410;-74
2022/05/20 05:56:37;;;;;;;1999.90;999.90;;;;;;;21.27;75.56;99614.31;8281755;28;20054;-74
2022/05/20 06:00:38;;;;;;;1999.90;999.90;;;;;;;21.93;72.17;99629.81;8271074;28;20421;-74
2022/05/20 06:04:40;;;;;;;1999.90;999.90;;;;;;;22.39;68.67;99631.13;8271426;28;20048;-74
2022/05/20 06:08:41;;;;;;;1999.90;999.90;;;;;;;22.86;66.51;99635.88;8277187;28;20065;-73
2022/05/20 06:12:43;;;;;;;1999.90;999.90;;;;;;;23.30;65.83;99630.06;8262286;28;20075;-74
2022/05/20 06:16:45;;;;;;;1999.90;999.90;;;;;;;23.66;63.47;99638.72;8261867;28;20085;-75
2022/05/20 06:20:47;;;;;;;1999.90;999.90;;;;;;;24.06;60.35;99642.72;8280595;28;20072;-74
2022/05/20 06:24:48;;;;;;;1999.90;999.90;;;;;;;24.48;59.12;99635.94;8277687;28;20058;-74
2022/05/20 06:28:50;;;;;;;1999.90;999.90;;;;;;;24.79;58.16;99635.03;8264305;28;20074;-74
2022/05/20 06:32:51;;;;;;;1999.90;999.90;;;;;;;24.86;56.14;99639.03;8269981;28;20073;-74
2022/05/20 06:41:13;;;;;;;1999.90;999.90;;;;;;;25.32;53.93;99628.31;8278599;28;20073;-74
2022/05/20 06:45:15;;;;;;;;;;;;;;;25.55;54.16;99626.91;8259185;28;20042;-74
2022/05/20 06:49:17;;;;;;;1999.90;999.90;;;;;;;25.70;53.68;99625.97;8278972;28;20377;-75
2022/05/20 06:53:18;;;;;;;;;;;;;;;25.70;52.29;99622.47;8282323;28;20366;-74
2022/05/20 06:57:22;;;;;;;1999.90;999.90;;;;;;;25.64;52.39;99617.47;8263567;28;19965;-74
2022/05/20 07:01:23;;;;;;;1999.90;999.90;;;;;;;25.54;48.78;99622.53;8264138;28;20144;-75
2022/05/20 07:05:27;;;;;;;1999.90;999.90;;;;;;;25.61;50.71;99619.38;8261091;28;20045;-74
2022/05/20 07:09:28;;;;;;;1999.90;999.90;;;;;;;25.67;48.52;99620.78;8282349;28;20045;-74
2022/05/20 07:13:31;;;;;;;1999.90;999.90;;;;;;;25.86;48.33;99629.38;8265679;28;20120;-75
2022/05/20 07:17:33;;;;;;;1999.90;999.90;;;;;;;25.78;46.73;99631.66;8265011;28;20050;-75
2022/05/20 07:21:35;;;;;;;1999.90;999.90;;;;;;;25.96;47.28;99634.09;8263612;28;20516;-74
2022/05/20 07:25:37;;;;;;;;;;;;;;;25.97;46.74;99631.34;8281751;28;20085;-75
2022/05/20 07:29:40;;;;;;;1999.90;999.90;;;;;;;25.99;45.28;99624.09;8274258;28;19982;-73
2022/05/20 07:33:43;;;;;;;1999.90;999.90;;;;;;;26.12;45.86;99618.84;8275791;28;20052;-74
2022/05/20 07:37:44;;;;;;;1999.90;999.90;;;;;;;26.18;45.63;99616.63;8262405;28;20144;-73
2022/05/20 07:41:47;;;;;;;1999.90;999.90;;;;;;;26.46;44.77;99623.72;8276561;28;20069;-73
2022/05/20 07:45:51;;;;;;;1999.90;999.90;;;;;;;26.53;44.45;99629.47;8231601;28;20116;-73
2022/05/20 07:49:52;;;;;;;1999.90;999.90;;;;;;;26.49;45.38;99626.16;8277401;28;20050;-74
2022/05/20 07:53:58;;;;;;;1999.90;999.90;;;;;;;26.54;43.19;99633.00;8274947;28;20442;-73
2022/05/20 07:58:02;;;;;;;1999.90;999.90;;;;;;;26.60;44.82;99637.94;8258744;28;20062;-73
2022/05/20 08:02:04;;;;;;;1999.90;999.90;;;;;;;26.74;43.79;99635.19;8278371;28;20073;-73
2022/05/20 08:06:05;;;;;;;1999.90;999.90;;;;;;;27.05;43.51;99634.00;8283262;28;20053;-73
2022/05/20 08:10:13;;;;;;;1999.90;999.90;;;;;;;27.34;43.35;99632.84;8276599;28;20643;-74
2022/05/20 08:14:16;;;;;;;1999.90;999.90;;;;;;;27.17;41.99;99630.50;8266627;28;20145;-73
2022/05/20 08:18:17;;;;;;;1999.90;999.90;;;;;;;27.33;43.17;99609.81;8263487;28;20089;-72
2022/05/20 08:22:22;;;;;;;;;;;;;;;27.74;43.01;99613.19;8257077;28;20149;-72
2022/05/20 08:26:24;;;;;;;1999.90;999.90;;;;;;;27.96;41.83;99600.00;8265653;28;19925;-72
2022/05/20 08:30:26;;;;;;;1999.90;999.90;;;;;;;28.06;40.97;99586.84;8250936;28;20048;-72
2022/05/20 08:34:28;;;;;;;1999.90;999.90;;;;;;;27.92;40.07;99579.84;8276622;28;20650;-73
2022/05/20 08:38:36;;;;;;;1999.90;999.90;;;;;;;28.14;40.07;99579.97;8260847;28;20041;-73
2022/05/20 08:42:38;;;;;;;1999.90;999.90;;;;;;;28.28;39.66;99566.47;8275468;28;20049;-72
2022/05/20 08:46:40;;;;;;;1999.90;999.90;;;;;;;28.35;39.38;99579.38;8269111;28;20050;-73
2022/05/20 08:50:54;;;;;;;1999.90;999.90;;;;;;;28.54;40.04;99563.66;8272159;28;20145;-73
2022/05/20 08:54:56;;;;;;;1999.90;999.90;;;;;;;28.68;39.89;99547.44;8257588;28;20157;-72
2022/05/20 08:59:16;;;;;;;1999.90;999.90;;;;;;;29.02;39.46;99558.22;8273401;28;20046;-72
2022/05/20 09:03:18;;;;;;;1999.90;999.90;;;;;;;28.99;38.23;99578.03;8274645;28;20547;-73
2022/05/20 09:07:20;;;;;;;1999.90;999.90;;;;;;;28.94;39.72;99595.41;8275230;28;20072;-73
2022/05/20 09:11:28;;;;;;;1999.90;999.90;;;;;;;29.05;38.42;99577.53;8263626;28;20042;-73
2022/05/20 09:15:44;;;;;;;1999.90;999.90;;;;;;;29.17;38.25;99584.63;8243938;28;20042;-73
2022/05/20 09:19:58;;;;;;;1999.90;999.90;;;;;;;28.78;38.47;99591.19;8264290;28;20513;-73
2022/05/20 09:24:03;;;;;;;1999.90;999.90;;;;;;;28.33;39.76;99579.47;8257725;28;20041;-73
2022/05/20 09:28:18;;;;;;;1999.90;999.90;;;;;;;28.38;39.63;99577.34;8278138;28;20100;-74
2022/05/20 09:32:22;;;;;;;1999.90;999.90;;;;;;;28.02;40.58;99556.88;8273953;28;20045;-74
2022/05/20 09:36:33;;;;;;;1999.90;999.90;;;;;;;27.74;41.07;99539.34;8278214;28;20068;-73
2022/05/20 09:40:47;;;;;;;1999.90;999.90;;;;;;;27.51;42.66;99556.97;8252245;28;20030;-74
2022/05/20 09:44:54;;;;;;;1999.90;999.90;;;;;;;27.32;43.45;99533.44;8265644;28;20045;-73
2022/05/20 09:49:30;;;;;;;1999.90;999.90;;;;;;;27.04;43.69;99504.34;8269316;28;20042;-73
2022/05/20 09:53:35;;;;;;;1999.90;999.90;;;;;;;26.68;43.99;99433.13;8257370;28;20077;-73
2022/05/20 09:57:40;;;;;;;1999.90;999.90;;;;;;;26.49;45.51;99306.56;8272646;28;20046;-74
2022/05/20 10:01:54;;;;;;;1999.90;999.90;;;;;;;26.39;45.02;99355.25;8247509;28;20053;-73
2022/05/20 10:06:01;;;;;;;1999.90;999.90;;;;;;;26.58;45.24;99354.84;8264308;28;20053;-73
2022/05/20 10:10:10;;;;;;;1999.90;999.90;;;;;;;27.21;45.28;99357.34;8284905;28;20053;-73
2022/05/20 10:14:17;;;;;;;1999.90;999.90;;;;;;;27.75;42.79;99356.06;8275239;28;20057;-73
2022/05/20 10:18:34;;;;;;;1999.90;999.90;;;;;;;28.31;41.52;99353.53;8257918;28;20060;-73
2022/05/20 10:22:44;;;;;;;1999.90;999.90;;;;;;;28.68;40.36;99375.53;8279823;28;20050;-74
2022/05/20 10:27:10;;;;;;;1999.90;999.90;;;;;;;29.01;40.24;99377.38;8279321;28;20074;-74
2022/05/20 10:35:51;;;;;;;1999.90;999.90;;;;;;;29.47;38.99;99404.78;8265983;28;21054;-74
2022/05/20 10:40:08;;;;;;;1999.90;999.90;;;;;;;29.52;38.27;99401.72;8278427;28;20070;-73
2022/05/20 10:49:01;;;;;;;;;;;;;;;29.81;38.19;99398.47;8269522;28;20650;-74
2022/05/20 10:53:27;;;;;;;1999.90;999.90;;;;;;;29.82;37.83;99381.41;8270725;28;20286;-73
2022/05/20 10:57:36;;;;;;;1999.90;999.90;;;;;;;29.94;38.99;99375.00;8259570;28;20070;-73
2022/05/20 11:02:08;;;;;;;1999.90;999.90;;;;;;;30.19;39.12;99366.63;8258504;28;20164;-74
2022/05/20 11:06:30;;;;;;;1999.90;999.90;;;;;;;30.40;38.18;99355.03;8281508;28;20065;-74
2022/05/20 11:10:43;;;;;;;1999.90;999.90;;;;;;;30.31;36.61;99354.84;8254395;28;20822;-74
2022/05/20 11:14:54;;;;;;;1999.90;999.90;;;;;;;29.89;36.99;99340.59;8267407;28;20102;-74
2022/05/20 11:19:21;;;;;;;1999.90;999.90;;;;;;;29.96;38.26;99335.56;8270117;28;20656;-73
2022/05/20 11:23:50;;;;;;;1999.90;999.90;;;;;;;30.40;38.52;99338.97;8283347;28;20050;-74
2022/05/20 11:28:03;;;;;;;1999.90;999.90;;;;;;;30.52;37.83;99341.41;8278321;28;20077;-74
2022/05/20 11:32:07;;;;;;;1999.90;999.90;;;;;;;30.47;36.79;99338.28;8274274;28;20050;-73
2022/05/20 11:36:49;;;;;;;1999.90;999.90;;;;;;;30.31;37.24;99343.25;8270280;28;20784;-73
2022/05/20 11:41:09;;;;;;;1999.90;999.90;;;;;;;30.40;37.72;99336.28;8266976;28;20058;-73
2022/05/20 11:45:42;;;;;;;1999.90;999.90;;;;;;;30.29;36.45;99330.00;8266405;28;20095;-74
2022/05/20 11:50:08;;;;;;;1999.90;999.90;;;;;;;29.55;37.44;99361.31;8264716;28;20061;-73
2022/05/20 11:54:36;;;;;;;1999.90;999.90;;;;;;;29.25;38.84;99327.22;8276335;28;20060;-73
2022/05/20 11:58:53;;;;;;;1999.90;999.90;;;;;;;29.38;39.48;99303.81;8269703;28;20146;-74
2022/05/20 12:02:59;;;;;;;1999.90;999.90;;;;;;;29.68;39.38;99319.19;8251059;28;20074;-73
2022/05/20 12:07:06;;;;;;;1999.90;999.90;;;;;;;29.64;39.75;99365.06;8268523;28;20483;-73
2022/05/20 12:11:22;;;;;;;1999.90;999.90;;;;;;;29.43;39.73;99399.75;8271870;28;20552;-73
2022/05/20 12:15:24;;;;;;;1999.90;999.90;;;;;;;28.80;40.64;99422.69;8277100;28;20050;-73
2022/05/20 12:24:12;;;;;;;1999.90;999.90;;;;;;;28.68;46.25;99316.75;8276394;28;20064;-75
2022/05/20 12:28:22;;;;;;;1999.90;999.90;;;;;;;29.15;47.66;99249.59;8250451;28;20076;-76
2022/05/20 12:32:43;;;;;;;1999.90;999.90;;;;;;;29.66;51.86;99213.22;8259327;28;20054;-75
2022/05/20 12:36:44;;;;;;;1999.90;999.90;;;;;;;30.03;45.99;99216.22;8251358;28;20101;-76
2022/05/20 12:40:51;;;;;;;1999.90;999.90;;;;;;;29.93;45.41;99200.13;8260189;28;20116;-74
2022/05/20 12:44:54;;;;;;;1999.90;999.90;;;;;;;29.86;43.89;99198.97;8238846;28;20141;-74
2022/05/20 12:48:55;;;;;;;1999.90;999.90;;;;;;;29.26;44.16;99250.50;8263825;28;20062;-73
2022/05/20 12:53:05;;;;;;;1999.90;999.90;;;;;;;28.40;48.07;99328.78;8259696;28;20050;-73
2022/05/20 12:57:13;;;;;;;1999.90;999.90;;;;;;;27.51;56.11;99444.09;8278053;28;20073;-73
2022/05/20 13:01:15;;;;;;;1999.90;999.90;;;;;;;26.70;54.63;99490.66;8269511;28;20054;-73
2022/05/20 13:05:50;;;;;;;1999.90;999.90;;;;;;;26.28;56.67;99430.53;8274544;28;20197;-74
2022/05/20 13:09:57;;;;;;;1999.90;999.90;;;;;;;25.92;62.25;99297.31;8240132;28;20054;-72
2022/05/20 13:13:59;;;;;;;1999.90;999.90;;;;;;;25.50;64.89;99267.38;8235961;28;20346;-73
2022/05/20 13:18:08;;;;;;;1999.90;999.90;;;;;;;24.89;68.44;99276.69;8272867;28;20054;-73
2022/05/20 13:22:13;;;;;;;1999.90;999.90;;;;;;;24.59;71.93;99259.13;8263628;28;20049;-74
2022/05/20 13:26:23;;;;;;;1999.90;999.90;;;;;;;24.42;74.02;99235.47;8263178;28;20088;-74
2022/05/20 13:30:30;;;;;;;1999.90;999.90;;;;;;;24.27;72.17;99236.41;8267452;28;20077;-73
2022/05/20 13:34:32;;;;;;;1999.90;999.90;;;;;;;24.28;73.18;99235.47;8272305;28;20061;-74
2022/05/20 13:38:40;;;;;;;1999.90;999.90;;;;;;;24.24;73.65;99184.38;8250607;28;20395;-73
2022/05/20 13:42:50;;;;;;;1999.90;999.90;;;;;;;24.27;76.09;99156.81;8254199;28;20133;-72
2022/05/20 13:51:20;;;;;;;1999.90;999.90;;;;;;;24.01;73.99;99220.31;8254305;28;20202;-73
2022/05/20 13:55:28;;;;;;;1999.90;999.90;;;;;;;23.93;74.28;99176.66;8262324;28;20517;-73
2022/05/20 13:59:33;;;;;;;1999.90;999.90;;;;;;;23.96;76.07;99158.75;8265989;28;20499;-73
2022/05/20 14:03:40;;;;;;;1999.90;999.90;;;;;;;23.96;71.57;99137.53;8250722;28;20053;-73
2022/05/20 14:07:52;;;;;;;1999.90;999.90;;;;;;;24.00;71.37;99140.81;8267600;28;20442;-74
2022/05/20 14:11:53;;;;;;;1999.90;999.90;;;;;;;24.01;70.48;99130.13;8264787;28;20084;-75
2022/05/20 14:16:00;;;;;;;1999.90;999.90;;;;;;;24.14;69.15;99175.28;8266597;28;20172;-74
2022/05/20 14:20:08;;;;;;;1999.90;999.90;;;;;;;24.52;63.18;99174.66;8274035;28;20144;-74
2022/05/20 14:24:16;;;;;;;1999.90;999.90;;;;;;;25.18;60.28;99168.53;8272277;28;20049;-74
2022/05/20 14:28:21;;;;;;;1999.90;999.90;;;;;;;25.84;60.48;99168.31;8251921;28;20161;-74
2022/05/20 14:32:24;;;;;;;1999.90;999.90;;;;;;;26.37;60.05;99141.50;8249612;28;20653;-74
2022/05/20 14:36:28;;;;;;;1999.90;999.90;;;;;;;26.47;56.85;99127.41;8255869;28;20141;-74
2022/05/20 14:40:31;;;;;;;1999.90;999.90;;;;;;;26.06;53.68;99117.13;8251834;28;20438;-74
2022/05/20 14:44:33;;;;;;;1999.90;999.90;;;;;;;25.73;52.11;99107.06;8269274;28;20050;-74
2022/05/20 14:48:34;;;;;;;;;;;;;;;25.79;56.78;99153.66;8265549;28;20069;-74
2022/05/20 14:52:55;;;;;;;1999.90;999.90;;;;;;;26.35;53.36;99175.38;8272683;28;20028;-75
2022/05/20 14:57:25;;;;;;;1999.90;999.90;;;;;;;26.59;49.97;99173.63;8260014;28;20148;-74
2022/05/20 15:01:29;;;;;;;1999.90;999.90;;;;;;;26.70;48.98;99175.47;8256113;28;21012;-74
2022/05/20 15:05:31;;;;;;;1999.90;999.90;;;;;;;26.98;51.08;99164.44;8262960;28;20494;-74
2022/05/20 15:09:36;;;;;;;1999.90;999.90;;;;;;;27.02;49.66;99154.44;8274622;28;20073;-74
2022/05/20 15:13:37;;;;;;;1999.90;999.90;;;;;;;27.19;48.39;99151.34;8270104;28;20427;-74
2022/05/20 15:17:59;;;;;;;1999.90;999.90;;;;;;;27.47;49.33;99142.06;8268747;28;20058;-74
2022/05/20 15:22:00;;;;;;;1999.90;999.90;;;;;;;27.85;48.47;99133.75;8256149;28;20044;-74
2022/05/20 15:26:06;;;;;;;;;;;;;;;27.90;47.05;99150.22;8257307;28;20046;-74
2022/05/20 15:30:08;;;;;;;1999.90;999.90;;;;;;;27.98;47.00;99141.59;8276606;28;19976;-74
2022/05/20 15:38:34;;;;;;;1999.90;999.90;;;;;;;28.06;45.61;99138.31;8261053;28;20038;-74
2022/05/20 15:42:35;;;;;;;1999.90;999.90;;;;;;;27.62;46.31;99138.16;8261907;28;20060;-74
2022/05/20 15:46:44;;;;;;;1999.90;999.90;;;;;;;27.28;46.65;99142.63;8262305;28;20120;-74
2022/05/20 15:50:45;;;;;;;;;;;;;;;26.87;47.68;99124.44;8264606;28;20057;-74
2022/05/20 15:55:13;;;;;;;1999.90;999.90;;;;;;;26.75;48.52;99126.22;8255471;28;19929;-74
2022/05/20 15:59:15;;;;;;;1999.90;999.90;;;;;;;26.64;48.43;99125.31;8272043;28;20494;-74
2022/05/20 16:03:21;;;;;;;1999.90;999.90;;;;;;;26.46;48.00;99120.41;8258771;28;20064;-74
2022/05/20 16:07:23;;;;;;;1999.90;999.90;;;;;;;26.26;48.72;99139.63;8279631;28;20042;-74
2022/05/20 16:11:27;;;;;;;1999.90;999.90;;;;;;;26.11;49.61;99154.03;8271840;28;20066;-74
2022/05/20 16:15:29;;;;;;;1999.90;999.90;;;;;;;25.96;50.37;99163.97;8275585;28;20078;-74
2022/05/20 16:19:30;;;;;;;1999.90;999.90;;;;;;;25.92;50.19;99167.81;8239932;28;20038;-74
2022/05/20 16:23:45;;;;;;;1999.90;999.90;;;;;;;25.85;50.54;99163.84;8275024;28;20069;-74
2022/05/20 16:27:49;;;;;;;1999.90;999.90;;;;;;;25.83;50.51;99152.47;8276509;28;20148;-73
2022/05/20 16:31:51;;;;;;;1999.90;999.90;;;;;;;25.83;51.20;99142.69;8236894;28;20054;-74
2022/05/20 16:35:53;;;;;;;1999.90;999.90;;;;;;;25.81;51.15;99131.31;8256640;28;20064;-74
2022/05/20 16:39:54;;;;;;;1999.90;999.90;;;;;;;25.82;50.76;99090.44;8256490;28;20038;-73
2022/05/20 16:43:58;;;;;;;1999.90;999.90;;;;;;;25.80;51.61;99108.31;8258198;28;20051;-74
2022/05/20 16:48:09;;;;;;;1999.90;999.90;;;;;;;25.67;52.87;99144.69;8268172;28;20045;-75
2022/05/20 16:52:13;;;;;;;1999.90;999.90;;;;;;;24.89;61.80;99367.88;8276788;28;20145;-77
2022/05/20 17:05:01;;;;;;;1999.90;999.90;;;;;;;22.40;76.41;99195.38;8281651;28;20064;-80
2022/05/20 17:09:06;;;;;;;1999.90;999.90;;;;;;;22.12;78.76;99196.94;8270972;28;20067;-81
2022/05/20 17:13:18;;;;;;;1999.90;999.90;;;;;;;21.87;79.81;99200.00;8258164;28;20046;-80
2022/05/20 17:17:20;;;;;;;1999.90;999.90;;;;;;;21.63;79.91;99212.72;8264900;28;20060;-80
2022/05/20 17:26:39;;;;;;;1999.90;999.90;;;;;;;21.25;83.02;99240.25;8599224;27;20124;-81
2022/05/20 17:30:41;;;;;;;1999.90;999.90;;;;;;;21.11;82.78;99275.25;8539189;27;20037;-82
2022/05/20 17:34:55;;;;;;;1999.90;999.90;;;;;;;20.98;82.26;99269.69;8480531;27;20683;-78
2022/05/20 17:39:02;;;;;;;1999.90;999.90;;;;;;;20.80;82.85;99268.81;8492314;27;20051;-80
2022/05/20 17:49:01;;;;;;;1999.90;999.90;;;;;;;20.43;85.25;99292.56;8482110;27;20038;-81
2022/05/20 17:53:29;;;;;;;1999.90;999.90;;;;;;;20.38;86.07;99305.94;8436298;28;20036;-80
2022/05/20 17:57:54;;;;;;;1999.90;999.90;;;;;;;20.49;86.34;99293.16;8428398;28;20131;-79
2022/05/20 18:02:28;;;;;;;1999.90;999.90;;;;;;;20.57;87.12;99328.88;8417126;28;20040;-80
2022/05/20 18:06:53;;;;;;;1999.90;999.90;;;;;;;20.60;86.65;99344.56;8423165;28;20046;-80
2022/05/20 18:10:55;;;;;;;1999.90;999.90;;;;;;;20.59;87.14;99358.69;8420025;28;20059;-80
2022/05/20 18:14:59;;;;;;;1999.90;999.90;;;;;;;20.63;87.89;99368.16;8429896;28;20105;-80
2022/05/20 18:19:02;;;;;;;1999.90;999.90;;;;;;;20.58;87.71;99373.66;8409789;28;20048;-80
2022/05/20 18:23:04;;;;;;;1999.90;999.90;;;;;;;20.59;88.66;99363.97;8446077;28;20570;-80
2022/05/20 18:27:08;;;;;;;1999.90;999.90;;;;;;;20.56;87.93;99372.88;8464727;27;20528;-80
2022/05/20 18:31:10;;;;;;;1999.90;999.90;;;;;;;20.46;88.27;99382.97;8456508;27;20044;-80
2022/05/20 18:39:34;;;;;;;1999.90;999.90;;;;;;;20.19;88.94;99408.75;8433303;28;20118;-78
2022/05/20 18:43:35;;;;;;;1999.90;999.90;;;;;;;20.14;89.18;99423.06;8433395;28;20063;-79
2022/05/20 18:47:37;;;;;;;1999.90;999.90;;;;;;;20.09;89.42;99420.63;8417229;28;20047;-79
2022/05/20 18:51:38;;;;;;;1999.90;999.90;;;;;;;20.06;89.28;99430.44;8442717;28;20043;-81
2022/05/20 18:55:40;;;;;;;1999.90;999.90;;;;;;;20.02;89.20;99439.41;8442802;28;20119;-79
2022/05/20 18:59:42;;;;;;;1999.90;999.90;;;;;;;19.92;89.48;99463.50;8435286;28;20039;-81
2022/05/20 19:03:48;;;;;;;1999.90;999.90;;;;;;;19.78;90.05;99455.31;8440063;28;20048;-81
2022/05/20 19:08:04;;;;;;;1999.90;999.90;;;;;;;19.65;89.93;99462.00;8452093;28;20078;-80
2022/05/20 19:12:26;;;;;;;1999.90;999.90;;;;;;;19.52;90.13;99473.91;8443403;28;20046;-81
2022/05/20 19:16:31;;;;;;;1999.90;999.90;;;;;;;19.45;89.73;99490.88;8437882;28;20075;-77
2022/05/20 19:20:37;;;;;;;1999.90;999.90;;;;;;;19.39;88.50;99483.19;8436041;28;20048;-78